Time;durP1;ratioP1;P1;durP2;ratioP2;P2;SDS_P1;SDS_P2;PMS_P1;PMS_P2;Temp;Humidity;BMP_temperature;BMP_pressure;BME280_temperature;BME280_humidity;BME280_pressure;Samples;Min_cycle;Max_cycle;Signal;HPM_P1;HPM_P2
2023/04/26 00:00:13;;;;;;;5.95;1.73;;;14.00;76.70;;;;;;5060971;28;20029;-84
2023/04/26 00:02:39;;;;;;;6.45;1.60;;;14.00;76.60;;;;;;5036412;28;20021;-83
2023/04/26 00:05:06;;;;;;;4.72;1.60;;;14.00;76.70;;;;;;5038007;28;20029;-83
2023/04/26 00:07:32;;;;;;;4.57;1.60;;;14.00;76.70;;;;;;5061132;28;20029;-84
2023/04/26 00:09:58;;;;;;;4.90;1.30;;;14.00;76.60;;;;;;5048947;28;20025;-85
2023/04/26 00:12:23;;;;;;;2.92;1.30;;;14.00;76.50;;;;;;5049103;28;20032;-83
2023/04/26 00:14:49;;;;;;;5.43;1.60;;;14.00;76.60;;;;;;5066929;28;20413;-84
2023/04/26 00:17:14;;;;;;;6.75;1.88;;;13.90;76.50;;;;;;5066171;28;20033;-85
2023/04/26 00:19:40;;;;;;;4.35;1.70;;;14.00;76.30;;;;;;5048138;28;20021;-84
2023/04/26 00:22:07;;;;;;;4.78;1.60;;;13.90;76.20;;;;;;5047093;28;20020;-83
2023/04/26 00:24:33;;;;;;;5.88;1.60;;;13.90;76.10;;;;;;5046797;28;20028;-84
2023/04/26 00:26:59;;;;;;;4.75;1.70;;;13.90;76.40;;;;;;5064496;28;20032;-81
2023/04/26 00:29:25;;;;;;;4.80;1.45;;;13.90;76.40;;;;;;5045927;28;20029;-84
2023/04/26 00:31:50;;;;;;;5.22;1.50;;;13.90;76.20;;;;;;5046842;28;20051;-83
2023/04/26 00:34:16;;;;;;;5.47;1.40;;;13.90;76.30;;;;;;5049572;28;20025;-83
2023/04/26 00:36:42;;;;;;;3.67;1.13;;;13.90;76.20;;;;;;5067285;28;20483;-83
2023/04/26 00:39:08;;;;;;;6.45;1.80;;;13.90;76.10;;;;;;5048075;28;20017;-83
2023/04/26 00:41:34;;;;;;;4.03;1.55;;;13.90;76.20;;;;;;5047357;28;20040;-83
2023/04/26 00:43:59;;;;;;;4.25;1.65;;;13.90;76.10;;;;;;5047776;28;20025;-83
2023/04/26 00:46:27;;;;;;;5.93;1.70;;;13.90;76.10;;;;;;5047115;28;20029;-83
2023/04/26 00:48:53;;;;;;;4.72;1.70;;;13.90;76.10;;;;;;5046550;28;20029;-83
2023/04/26 00:51:19;;;;;;;4.95;1.50;;;13.90;76.20;;;;;;5064178;28;20082;-83
2023/04/26 00:53:44;;;;;;;4.55;1.42;;;13.90;76.10;;;;;;5063667;28;20056;-83
2023/04/26 00:56:11;;;;;;;4.55;1.58;;;13.90;76.00;;;;;;5045513;28;20371;-83
2023/04/26 00:58:37;;;;;;;5.78;1.50;;;13.90;75.90;;;;;;5045122;28;20052;-83
2023/04/26 01:01:03;;;;;;;4.03;1.20;;;13.90;75.90;;;;;;5040716;28;20017;-82
2023/04/26 01:03:29;;;;;;;5.28;1.40;;;13.90;76.00;;;;;;5039080;28;20394;-83
2023/04/26 01:05:54;;;;;;;6.38;1.75;;;13.90;75.70;;;;;;5044815;28;20448;-83
2023/04/26 01:08:20;;;;;;;6.20;1.83;;;13.80;75.80;;;;;;5061857;28;20025;-83
2023/04/26 01:10:47;;;;;;;4.22;1.45;;;13.90;75.90;;;;;;5043212;28;20112;-83
2023/04/26 01:13:14;;;;;;;6.00;1.50;;;13.90;75.70;;;;;;5042906;28;20037;-83
2023/04/26 01:15:46;;;;;;;4.90;1.52;;;13.90;75.80;;;;;;5042659;28;20025;-83
2023/04/26 01:18:13;;;;;;;5.13;1.70;;;13.80;75.90;;;;;;5057505;28;20032;-82
2023/04/26 01:20:40;;;;;;;4.18;1.40;;;13.80;75.80;;;;;;5038546;28;20021;-83
2023/04/26 01:23:07;;;;;;;5.25;1.30;;;13.80;75.70;;;;;;5039139;28;20485;-82
2023/04/26 01:25:33;;;;;;;3.90;1.40;;;13.80;75.80;;;;;;5059233;28;20021;-83
2023/04/26 01:27:58;;;;;;;6.07;1.60;;;13.80;75.70;;;;;;5041504;28;20405;-83
2023/04/26 01:30:24;;;;;;;4.75;1.40;;;13.80;75.90;;;;;;5041310;28;20123;-82
2023/04/26 01:32:50;;;;;;;4.50;1.60;;;13.80;75.90;;;;;;5041226;28;20393;-83
2023/04/26 01:35:15;;;;;;;4.15;1.40;;;13.80;75.90;;;;;;5059283;28;20055;-83
2023/04/26 01:37:41;;;;;;;2.88;1.25;;;13.80;76.00;;;;;;5041065;28;20044;-83
2023/04/26 01:40:07;;;;;;;4.78;1.48;;;13.80;75.70;;;;;;5054854;28;20503;-82
2023/04/26 01:42:32;;;;;;;5.18;1.63;;;13.80;75.60;;;;;;5039070;28;20025;-84
2023/04/26 01:44:58;;;;;;;5.22;1.80;;;13.80;75.70;;;;;;5038950;28;20127;-83
2023/04/26 01:47:25;;;;;;;2.88;1.33;;;13.80;75.70;;;;;;5039799;28;20509;-83
2023/04/26 01:49:50;;;;;;;3.97;1.45;;;13.70;75.60;;;;;;5037894;28;20021;-82
2023/04/26 01:52:16;;;;;;;4.03;1.60;;;13.80;75.50;;;;;;5054883;28;20139;-82
2023/04/26 01:54:41;;;;;;;5.63;1.50;;;13.80;75.60;;;;;;5054719;28;20029;-82
2023/04/26 01:57:07;;;;;;;3.75;1.60;;;13.80;75.70;;;;;;5036865;28;20393;-82
2023/04/26 01:59:32;;;;;;;4.07;1.50;;;13.70;75.50;;;;;;5037134;28;20025;-82
2023/04/26 02:01:58;;;;;;;4.38;1.50;;;13.80;75.40;;;;;;5036709;28;20116;-82
2023/04/26 02:04:25;;;;;;;5.75;1.70;;;13.70;75.50;;;;;;5057427;28;20020;-83
2023/04/26 02:06:50;;;;;;;3.97;1.30;;;13.70;75.50;;;;;;5038282;28;20032;-82
2023/04/26 02:09:17;;;;;;;4.95;1.45;;;13.70;75.50;;;;;;5037768;28;20021;-82
2023/04/26 02:11:42;;;;;;;4.30;1.50;;;13.70;75.50;;;;;;5036348;28;20035;-82
2023/04/26 02:14:08;;;;;;;5.20;1.73;;;13.80;75.20;;;;;;5036638;28;20119;-83
2023/04/26 02:16:33;;;;;;;3.20;1.30;;;13.70;75.10;;;;;;5036409;28;20025;-83
2023/04/26 02:18:59;;;;;;;4.03;1.70;;;13.70;75.30;;;;;;5036537;28;20481;-82
2023/04/26 02:21:25;;;;;;;4.35;1.50;;;13.70;75.10;;;;;;5054284;28;20432;-82
2023/04/26 02:23:51;;;;;;;3.30;1.33;;;13.70;74.90;;;;;;5053755;28;20013;-83
2023/04/26 02:26:16;;;;;;;5.65;1.55;;;13.70;75.00;;;;;;5036062;28;20070;-82
2023/04/26 02:28:42;;;;;;;3.55;1.20;;;13.70;75.30;;;;;;5037003;28;20029;-83
2023/04/26 02:31:08;;;;;;;4.65;1.40;;;13.70;75.00;;;;;;5036747;28;20028;-83
2023/04/26 02:33:33;;;;;;;4.18;1.30;;;13.70;75.20;;;;;;5053810;28;20096;-83
2023/04/26 02:36:03;;;;;;;4.35;1.60;;;13.70;74.90;;;;;;5035840;28;20025;-82
2023/04/26 02:38:28;;;;;;;3.20;1.48;;;13.70;75.00;;;;;;5033600;28;20459;-82
2023/04/26 02:40:58;;;;;;;3.47;1.52;;;13.70;74.80;;;;;;5026162;28;20033;-83
2023/04/26 02:43:24;;;;;;;4.40;1.67;;;13.70;74.90;;;;;;5021512;28;20025;-83
2023/04/26 02:45:49;;;;;;;4.28;1.77;;;13.70;74.90;;;;;;5031162;28;20071;-84
2023/04/26 02:48:15;;;;;;;3.42;1.60;;;13.70;74.80;;;;;;5030449;28;20422;-84
2023/04/26 02:50:40;;;;;;;3.83;1.38;;;13.60;74.80;;;;;;5030018;28;20034;-83
2023/04/26 02:53:06;;;;;;;3.58;1.38;;;13.70;74.80;;;;;;5030474;28;20037;-84
2023/04/26 02:55:31;;;;;;;4.80;1.73;;;13.70;74.90;;;;;;5028601;28;20029;-83
2023/04/26 02:57:57;;;;;;;3.45;1.45;;;13.70;74.70;;;;;;5029157;28;20029;-85
2023/04/26 03:00:23;;;;;;;5.78;1.55;;;13.70;74.70;;;;;;5046204;28;20021;-83
2023/04/26 03:02:49;;;;;;;4.97;1.70;;;13.60;74.60;;;;;;5027794;28;20022;-85
2023/04/26 03:05:14;;;;;;;3.33;1.30;;;13.70;74.70;;;;;;5027242;28;20394;-83
2023/04/26 03:07:40;;;;;;;3.53;1.20;;;13.70;74.80;;;;;;5027314;28;20037;-84
2023/04/26 03:10:07;;;;;;;4.07;1.42;;;13.60;74.80;;;;;;5026595;28;20359;-84
2023/04/26 03:12:33;;;;;;;3.63;1.50;;;13.60;74.80;;;;;;5026502;28;20032;-84
2023/04/26 03:14:58;;;;;;;4.55;1.50;;;13.60;74.60;;;;;;5026085;28;20472;-83
2023/04/26 03:17:23;;;;;;;3.78;1.70;;;13.60;74.60;;;;;;5025277;28;20038;-83
2023/04/26 03:19:49;;;;;;;4.93;1.52;;;13.60;74.60;;;;;;5025242;28;20025;-83
2023/04/26 03:22:15;;;;;;;3.92;1.63;;;13.70;74.60;;;;;;5024498;28;20025;-83
2023/04/26 03:24:43;;;;;;;3.97;1.50;;;13.60;74.50;;;;;;5023373;28;20024;-83
2023/04/26 03:27:09;;;;;;;3.90;1.42;;;13.50;74.50;;;;;;5033393;28;20033;-79
2023/04/26 03:29:35;;;;;;;4.57;1.55;;;13.60;74.70;;;;;;5030847;28;20045;-77
2023/04/26 03:32:00;;;;;;;4.55;1.50;;;13.60;74.70;;;;;;5012968;28;20379;-84
2023/04/26 03:34:26;;;;;;;2.90;1.30;;;13.60;74.60;;;;;;5016180;28;20262;-81
2023/04/26 03:36:52;;;;;;;4.32;1.60;;;13.60;74.60;;;;;;5035616;28;20040;-81
2023/04/26 03:39:20;;;;;;;3.28;1.33;;;13.60;74.40;;;;;;5035745;28;20047;-80
2023/04/26 03:41:46;;;;;;;5.47;1.80;;;13.60;74.50;;;;;;5034576;28;20086;-81
2023/04/26 03:44:12;;;;;;;2.50;1.30;;;13.60;74.50;;;;;;5053368;28;20029;-81
2023/04/26 03:46:42;;;;;;;3.55;1.40;;;13.60;74.50;;;;;;5034245;28;20039;-80
2023/04/26 03:49:07;;;;;;;4.40;1.60;;;13.60;74.40;;;;;;5035185;28;20025;-82
2023/04/26 03:51:33;;;;;;;3.45;1.50;;;13.60;74.40;;;;;;5035546;28;20025;-80
2023/04/26 03:53:58;;;;;;;3.88;1.40;;;13.60;74.40;;;;;;5045324;28;20033;-82
2023/04/26 03:56:24;;;;;;;3.72;1.50;;;13.60;74.40;;;;;;5015715;28;20393;-83
2023/04/26 03:58:50;;;;;;;3.92;1.60;;;13.60;74.40;;;;;;5015563;28;20029;-81
2023/04/26 04:01:16;;;;;;;5.30;1.83;;;13.60;74.40;;;;;;5015454;28;20021;-81
2023/04/26 04:03:41;;;;;;;3.75;1.73;;;13.50;74.30;;;;;;5014889;28;20025;-82
2023/04/26 04:06:07;;;;;;;2.70;1.42;;;13.60;74.30;;;;;;5017144;28;20097;-82
2023/04/26 04:08:33;;;;;;;5.68;1.95;;;13.60;74.20;;;;;;5019338;28;20029;-84
2023/04/26 04:10:58;;;;;;;4.45;1.73;;;13.50;74.10;;;;;;5019220;28;20794;-78
2023/04/26 04:13:24;;;;;;;6.00;1.70;;;13.50;74.00;;;;;;5018949;28;20029;-81
2023/04/26 04:15:50;;;;;;;5.90;2.00;;;13.60;74.00;;;;;;5020261;28;20033;-82
2023/04/26 04:18:16;;;;;;;3.00;1.40;;;13.50;74.00;;;;;;5019916;28;20056;-85
2023/04/26 04:20:42;;;;;;;2.90;1.50;;;13.60;74.10;;;;;;5018669;28;20716;-83
2023/04/26 04:23:08;;;;;;;3.72;1.70;;;13.50;74.10;;;;;;5018972;28;20509;-86
2023/04/26 04:25:34;;;;;;;3.75;1.70;;;13.50;74.00;;;;;;5017787;28;20037;-82
2023/04/26 04:28:02;;;;;;;4.15;1.80;;;13.50;74.00;;;;;;5017238;28;20021;-84
2023/04/26 04:30:29;;;;;;;4.57;1.70;;;13.50;74.00;;;;;;5016673;28;20032;-86
2023/04/26 04:32:58;;;;;;;3.63;1.50;;;13.60;74.00;;;;;;5018310;28;20033;-84
2023/04/26 04:35:27;;;;;;;3.35;1.77;;;13.50;73.90;;;;;;5017956;28;20029;-86
2023/04/26 04:37:58;;;;;;;5.05;1.75;;;13.50;74.00;;;;;;5019967;28;20038;-85
2023/04/26 04:40:24;;;;;;;4.43;1.77;;;13.50;74.00;;;;;;5033243;28;20109;-83
2023/04/26 04:42:50;;;;;;;5.53;1.90;;;13.50;74.00;;;;;;5037024;28;20631;-84
2023/04/26 04:45:16;;;;;;;5.40;2.05;;;13.60;74.10;;;;;;5054795;28;20103;-82
2023/04/26 04:47:42;;;;;;;3.95;1.88;;;13.50;74.10;;;;;;5035677;28;20032;-87
2023/04/26 04:50:08;;;;;;;3.90;1.77;;;13.50;74.20;;;;;;5036983;28;20055;-88
2023/04/26 04:52:34;;;;;;;4.45;1.90;;;13.50;74.10;;;;;;5031573;28;20090;-84
2023/04/26 04:55:00;;;;;;;4.00;2.03;;;13.50;74.30;;;;;;5017655;28;20029;-84
2023/04/26 04:57:26;;;;;;;3.35;1.75;;;13.90;74.40;;;;;;5016182;28;20060;-84
2023/04/26 04:59:52;;;;;;;4.22;1.80;;;13.50;74.30;;;;;;5015762;28;20386;-85
2023/04/26 05:02:17;;;;;;;4.55;1.88;;;13.80;74.40;;;;;;5016320;28;20017;-85
2023/04/26 05:04:43;;;;;;;4.03;1.80;;;13.10;74.10;;;;;;5017832;28;20394;-84
2023/04/26 05:07:14;;;;;;;5.80;2.05;;;13.50;74.20;;;;;;5017081;28;20119;-84
2023/04/26 05:09:43;;;;;;;3.57;1.80;;;14.10;74.70;;;;;;5017992;28;20053;-83
2023/04/26 05:12:08;;;;;;;5.25;1.98;;;13.60;74.40;;;;;;5017569;28;20268;-84
2023/04/26 05:14:34;;;;;;;4.30;1.88;;;13.60;74.30;;;;;;5016521;28;20048;-83
2023/04/26 05:17:00;;;;;;;4.68;2.00;;;13.90;74.50;;;;;;5016648;28;20029;-88
2023/04/26 05:19:26;;;;;;;3.78;1.80;;;13.60;74.50;;;;;;5016459;28;20088;-83
2023/04/26 05:21:51;;;;;;;3.38;1.60;;;13.90;74.60;;;;;;5015412;28;20033;-82
2023/04/26 05:24:36;;;;;;;3.75;1.80;;;13.50;74.40;;;;;;5015497;28;20021;-84
2023/04/26 05:27:03;;;;;;;5.93;2.17;;;13.50;74.30;;;;;;5015630;28;20052;-86
2023/04/26 05:29:29;;;;;;;4.30;1.85;;;13.20;74.30;;;;;;5017140;28;20034;-85
2023/04/26 05:31:55;;;;;;;4.50;1.88;;;13.70;74.60;;;;;;5017113;28;20065;-88
2023/04/26 05:34:22;;;;;;;4.10;1.80;;;13.60;74.20;;;;;;5016077;28;20064;-83
2023/04/26 05:36:47;;;;;;;4.25;1.80;;;13.50;74.40;;;;;;5015842;28;20021;-86
2023/04/26 05:49:58;;;;;;;5.00;1.90;;;13.70;74.60;;;;;;4973542;28;20070;-84
2023/04/26 05:52:27;;;;;;;4.82;2.15;;;13.60;74.80;;;;;;4973404;28;20034;-86
2023/04/26 05:54:55;;;;;;;4.65;1.90;;;13.40;74.60;;;;;;5012896;28;20504;-86
2023/04/26 05:57:20;;;;;;;4.55;1.80;;;13.60;74.70;;;;;;5016486;28;20375;-84
2023/04/26 05:59:46;;;;;;;4.25;1.83;;;14.30;75.10;;;;;;5016677;28;20026;-85
2023/04/26 06:02:16;;;;;;;4.75;2.00;;;13.50;74.60;;;;;;5016927;28;20022;-85
2023/04/26 06:04:42;;;;;;;4.72;2.00;;;13.60;74.60;;;;;;5016903;28;20033;-84
2023/04/26 06:07:08;;;;;;;5.10;1.95;;;13.60;74.60;;;;;;5017365;28;20025;-86
2023/04/26 06:09:43;;;;;;;4.55;2.17;;;13.90;74.80;;;;;;5022799;28;20033;-87
2023/04/26 06:12:17;;;;;;;4.53;2.25;;;13.90;74.80;;;;;;5019595;28;20036;-87
2023/04/26 06:14:46;;;;;;;5.03;1.92;;;13.60;74.50;;;;;;5019613;28;20036;-86
2023/04/26 06:17:20;;;;;;;3.80;1.92;;;15.30;75.20;;;;;;5019669;28;20480;-86
2023/04/26 06:19:51;;;;;;;5.32;1.85;;;14.70;75.00;;;;;;5019407;28;20032;-85
2023/04/26 06:22:19;;;;;;;5.18;2.22;;;14.90;75.00;;;;;;5018444;28;20025;-86
2023/04/26 06:25:43;;;;;;;;;;;;;;;;;;;;;
2023/04/26 06:28:21;;;;;;;;;;;13.70;74.10;;;;;;5034192;28;20127;-86
2023/04/26 06:30:58;;;;;;;5.30;2.05;;;13.70;73.90;;;;;;5017032;28;19905;-86
2023/04/26 06:33:26;;;;;;;4.72;2.10;;;14.60;74.20;;;;;;5017558;28;20767;-86
2023/04/26 06:35:58;;;;;;;4.47;2.00;;;14.20;74.00;;;;;;5024043;28;20040;-86
2023/04/26 06:38:28;;;;;;;5.47;2.20;;;13.80;73.80;;;;;;5024427;28;20033;-86
2023/04/26 06:40:58;;;;;;;4.65;2.10;;;13.90;73.70;;;;;;5025232;28;20056;-86
2023/04/26 06:43:50;;;;;;;4.93;2.03;;;13.80;73.50;;;;;;5027386;28;20052;-86
2023/04/26 06:47:11;;;;;;;5.10;2.15;;;13.90;74.00;;;;;;5024738;28;20030;-86
2023/04/26 06:49:53;;;;;;;4.38;2.00;;;13.90;74.20;;;;;;5007171;28;20081;-85
2023/04/26 06:52:38;;;;;;;4.68;1.95;;;15.00;74.00;;;;;;5025735;28;20057;-85
2023/04/26 06:55:09;;;;;;;4.82;1.95;;;13.90;73.50;;;;;;5027544;28;20096;-85
2023/04/26 06:57:40;;;;;;;4.30;1.90;;;14.00;73.50;;;;;;5029575;28;20034;-85
2023/04/26 07:00:17;;;;;;;3.45;2.00;;;15.20;74.40;;;;;;5029930;28;20017;-85
2023/04/26 07:03:01;;;;;;;4.20;1.70;;;13.90;73.70;;;;;;5024374;28;20025;-89
2023/04/26 07:06:20;;;;;;;3.58;1.90;;;14.80;74.20;;;;;;5018775;28;20029;-84
2023/04/26 07:09:41;;;;;;;4.15;1.92;;;13.80;73.90;;;;;;4959159;28;20035;-87
2023/04/26 07:12:50;;;;;;;3.80;1.80;;;14.10;73.70;;;;;;4938666;29;20054;-88
2023/04/26 07:15:58;;;;;;;;;;;14.30;74.20;;;;;;5019037;28;20093;-89
2023/04/26 07:22:45;;;;;;;4.63;2.08;;;14.00;73.50;;;;;;4971510;28;20165;-87
2023/04/26 07:25:45;;;;;;;4.93;2.10;;;14.00;73.60;;;;;;4944158;28;20031;-88
2023/04/26 07:28:35;;;;;;;;;;;;;;;;;;;;;
2023/04/26 07:31:40;;;;;;;3.97;1.80;;;14.90;74.50;;;;;;5033341;28;19911;-87
2023/04/26 07:34:11;;;;;;;4.25;1.90;;;14.10;73.50;;;;;;4998430;28;20393;-84
2023/04/26 07:36:36;;;;;;;4.43;2.10;;;14.10;73.50;;;;;;5016620;28;20026;-86
2023/04/26 07:39:07;;;;;;;4.35;1.83;;;14.00;73.70;;;;;;5014204;28;20383;-86
2023/04/26 07:41:33;;;;;;;3.47;1.80;;;14.00;73.70;;;;;;5015577;28;20029;-84
2023/04/26 07:43:59;;;;;;;5.10;2.10;;;15.60;74.50;;;;;;5015005;28;20035;-89
2023/04/26 07:46:40;;;;;;;3.92;1.80;;;14.20;73.80;;;;;;5015749;28;20021;-85
2023/04/26 07:49:07;;;;;;;5.07;1.92;;;13.90;73.80;;;;;;5016176;28;20033;-84
2023/04/26 07:51:36;;;;;;;5.43;2.15;;;14.10;73.80;;;;;;5015769;28;20026;-85
2023/04/26 07:54:02;;;;;;;4.28;1.83;;;14.00;73.60;;;;;;5030627;28;20112;-85
2023/04/26 07:56:27;;;;;;;4.88;2.15;;;14.00;73.50;;;;;;5035151;28;20053;-88
2023/04/26 07:58:53;;;;;;;4.85;2.40;;;14.00;73.60;;;;;;5035542;28;20033;-88
2023/04/26 08:01:18;;;;;;;5.03;1.90;;;14.00;73.60;;;;;;5035063;28;20014;-87
2023/04/26 08:03:43;;;;;;;4.78;2.30;;;14.10;73.70;;;;;;5055727;28;20147;-88
2023/04/26 08:06:09;;;;;;;4.10;2.05;;;14.00;73.80;;;;;;5035588;28;20021;-88
2023/04/26 08:08:43;;;;;;;5.28;2.20;;;14.00;73.90;;;;;;5053309;28;20037;-88
2023/04/26 08:11:09;;;;;;;4.53;2.15;;;14.00;73.90;;;;;;5054724;28;20018;-88
2023/04/26 08:13:35;;;;;;;3.92;1.90;;;14.00;73.90;;;;;;5037481;28;20121;-88
2023/04/26 08:16:00;;;;;;;5.43;2.13;;;14.00;73.90;;;;;;5035655;28;20072;-89
2023/04/26 08:18:26;;;;;;;4.57;1.80;;;14.00;73.90;;;;;;5034603;28;20035;-88
2023/04/26 08:20:54;;;;;;;4.82;2.00;;;14.00;74.10;;;;;;5052201;28;20481;-82
2023/04/26 08:23:19;;;;;;;3.83;1.90;;;14.00;73.90;;;;;;5034619;28;20036;-82
2023/04/26 08:25:45;;;;;;;3.80;1.90;;;13.90;73.90;;;;;;5052326;28;20393;-83
2023/04/26 08:28:13;;;;;;;5.20;2.08;;;13.90;74.00;;;;;;5053693;28;20033;-83
2023/04/26 08:30:39;;;;;;;5.07;2.20;;;13.90;74.00;;;;;;5052011;28;20486;-82
2023/04/26 08:33:04;;;;;;;4.15;2.00;;;13.80;74.00;;;;;;5031723;28;20033;-83
2023/04/26 08:35:30;;;;;;;6.03;2.50;;;13.90;74.00;;;;;;5043846;28;20084;-79
2023/04/26 08:37:55;;;;;;;4.47;1.98;;;13.90;74.20;;;;;;5045334;28;20029;-80
2023/04/26 08:40:26;;;;;;;4.22;2.10;;;13.90;74.10;;;;;;5024828;28;20504;-79
2023/04/26 08:42:52;;;;;;;6.65;2.20;;;13.90;74.30;;;;;;5018253;28;20018;-89
2023/04/26 08:45:20;;;;;;;34.03;4.75;;;13.90;74.20;;;;;;5018045;28;20025;-88
2023/04/26 08:48:02;;;;;;;28.80;3.72;;;13.80;70.30;;;;;;5016805;28;20490;-89
2023/04/26 08:50:29;;;;;;;21.75;3.25;;;13.60;63.40;;;;;;5015196;28;20029;-89
2023/04/26 08:52:55;;;;;;;19.30;3.58;;;13.50;63.90;;;;;;5018094;28;20102;-88
2023/04/26 08:55:22;;;;;;;17.20;2.70;;;13.60;64.00;;;;;;5019158;28;20112;-88
2023/04/26 08:57:49;;;;;;;17.15;3.00;;;13.60;65.10;;;;;;5018826;28;20592;-88
2023/04/26 09:00:16;;;;;;;17.88;3.15;;;13.60;65.90;;;;;;5018036;28;20504;-87
2023/04/26 09:02:49;;;;;;;13.57;3.00;;;13.70;66.40;;;;;;5035615;28;20101;-87
2023/04/26 09:05:15;;;;;;;17.40;3.00;;;13.80;67.50;;;;;;5018383;28;20452;-88
2023/04/26 09:07:45;;;;;;;23.25;3.90;;;13.80;68.50;;;;;;5018623;28;20025;-87
2023/04/26 09:10:13;;;;;;;21.95;2.88;;;13.90;68.80;;;;;;5035621;28;20386;-88
2023/04/26 09:12:38;;;;;;;14.18;2.60;;;13.90;68.90;;;;;;5017682;28;20485;-88
2023/04/26 09:15:09;;;;;;;8.90;2.40;;;14.00;69.30;;;;;;5041120;28;20040;-85
2023/04/26 09:17:40;;;;;;;6.32;1.95;;;14.00;69.70;;;;;;5038090;28;20032;-88
2023/04/26 09:20:24;;;;;;;8.48;1.98;;;14.10;70.00;;;;;;5037253;28;20021;-85
2023/04/26 09:22:52;;;;;;;8.52;1.85;;;14.10;70.30;;;;;;5021517;28;20119;-85
2023/04/26 09:25:26;;;;;;;6.07;1.95;;;14.20;70.20;;;;;;5018400;28;20025;-84
2023/04/26 09:27:52;;;;;;;9.75;1.95;;;14.20;70.60;;;;;;5017671;28;20052;-87
2023/04/26 09:30:19;;;;;;;8.90;2.28;;;14.10;70.80;;;;;;5017481;28;20055;-87
2023/04/26 09:32:58;;;;;;;11.77;2.65;;;14.20;70.60;;;;;;5017344;28;20025;-88
2023/04/26 09:35:30;;;;;;;9.13;2.30;;;14.20;70.70;;;;;;5017066;28;20033;-87
2023/04/26 09:37:58;;;;;;;9.50;2.45;;;14.20;70.80;;;;;;5017070;28;20033;-86
2023/04/26 09:40:25;;;;;;;6.63;2.20;;;14.20;70.90;;;;;;5017457;28;20053;-88
2023/04/26 09:43:17;;;;;;;10.63;2.10;;;14.10;71.00;;;;;;5017031;28;20032;-88
2023/04/26 09:45:54;;;;;;;6.53;2.03;;;14.10;71.00;;;;;;5037836;28;20030;-88
2023/04/26 09:48:22;;;;;;;9.27;2.40;;;14.10;71.20;;;;;;5022630;28;20033;-88
2023/04/26 09:50:51;;;;;;;8.43;2.00;;;14.00;71.00;;;;;;5039912;28;20474;-88
2023/04/26 09:53:31;;;;;;;10.20;2.45;;;14.00;71.30;;;;;;5021910;28;20060;-88
2023/04/26 09:56:06;;;;;;;8.20;2.38;;;14.00;71.50;;;;;;5021956;28;20025;-88
2023/04/26 09:58:32;;;;;;;8.20;1.95;;;14.00;71.70;;;;;;5020395;28;20021;-88
2023/04/26 10:00:58;;;;;;;5.90;2.15;;;14.00;71.80;;;;;;5039136;28;20034;-88
2023/04/26 10:03:25;;;;;;;6.95;2.47;;;14.00;71.90;;;;;;5036634;28;20041;-88
2023/04/26 10:05:52;;;;;;;8.90;2.28;;;13.90;71.90;;;;;;5017423;28;20071;-88
2023/04/26 10:08:18;;;;;;;7.32;2.20;;;13.90;72.00;;;;;;5016645;28;20030;-88
2023/04/26 10:10:44;;;;;;;4.93;2.00;;;13.90;72.00;;;;;;5020109;28;20545;-88
2023/04/26 10:13:11;;;;;;;4.88;1.88;;;13.90;72.10;;;;;;5020437;28;20468;-89
2023/04/26 10:15:38;;;;;;;8.30;2.08;;;13.90;72.10;;;;;;5019901;28;20026;-88
2023/04/26 10:18:04;;;;;;;7.90;2.10;;;13.90;72.10;;;;;;5034883;28;20026;-88
2023/04/26 10:20:30;;;;;;;5.38;1.80;;;13.90;72.20;;;;;;5018249;28;20048;-88
2023/04/26 10:23:00;;;;;;;5.80;1.90;;;13.90;72.10;;;;;;5019783;28;20031;-88
2023/04/26 10:25:36;;;;;;;6.25;1.83;;;13.90;71.80;;;;;;5019102;28;20107;-88
2023/04/26 10:28:02;;;;;;;6.40;1.95;;;14.00;71.90;;;;;;5019388;28;20026;-87
2023/04/26 10:30:28;;;;;;;6.40;1.73;;;13.90;71.90;;;;;;5020796;28;20026;-88
2023/04/26 10:32:56;;;;;;;7.07;1.70;;;14.00;71.80;;;;;;5020842;28;20081;-89
2023/04/26 10:35:32;;;;;;;6.72;1.80;;;14.00;71.70;;;;;;5019846;28;20047;-88
2023/04/26 10:38:00;;;;;;;5.60;1.90;;;14.00;71.70;;;;;;5020223;28;20025;-85
2023/04/26 10:40:32;;;;;;;7.07;2.30;;;14.00;71.60;;;;;;5024988;28;20026;-90
2023/04/26 10:43:10;;;;;;;;;;;14.00;71.70;;;;;;5044593;28;20018;-88
2023/04/26 10:45:36;;;;;;;7.72;2.20;;;14.00;71.90;;;;;;5025527;28;19975;-87
2023/04/26 10:48:19;;;;;;;8.82;2.28;;;14.00;72.00;;;;;;5024639;28;20029;-88
2023/04/26 10:51:00;;;;;;;6.82;1.90;;;14.00;72.00;;;;;;5023782;28;20555;-84
2023/04/26 10:53:58;;;;;;;7.07;1.83;;;13.90;72.20;;;;;;5023221;28;20458;-86
2023/04/26 10:56:26;;;;;;;6.53;1.73;;;13.90;72.50;;;;;;5041486;28;20033;-87
2023/04/26 10:59:12;;;;;;;6.50;2.13;;;13.90;72.30;;;;;;5025029;28;20432;-86
2023/04/26 11:01:39;;;;;;;8.45;2.35;;;13.90;72.40;;;;;;5033953;28;20477;-87
2023/04/26 11:04:10;;;;;;;6.53;2.13;;;13.90;72.50;;;;;;5060124;28;20051;-87
2023/04/26 11:06:49;;;;;;;6.67;1.80;;;13.90;72.50;;;;;;5037864;28;20532;-88
2023/04/26 11:09:35;;;;;;;5.80;1.70;;;13.90;72.50;;;;;;5038701;28;20021;-86
2023/04/26 11:12:04;;;;;;;6.07;1.75;;;13.90;72.50;;;;;;5038827;28;20044;-87
2023/04/26 11:14:30;;;;;;;5.78;2.15;;;13.90;72.30;;;;;;5037758;28;20025;-87
2023/04/26 11:16:55;;;;;;;5.60;2.22;;;13.90;72.30;;;;;;5056358;28;20483;-87
2023/04/26 11:19:21;;;;;;;5.70;2.03;;;13.90;72.30;;;;;;5037578;28;20029;-86
2023/04/26 11:21:47;;;;;;;5.68;1.88;;;13.90;72.50;;;;;;5037015;28;20028;-87
2023/04/26 11:24:14;;;;;;;5.00;1.70;;;13.90;72.40;;;;;;5057754;28;20017;-88
2023/04/26 11:26:40;;;;;;;4.47;1.65;;;13.90;72.60;;;;;;5036946;28;20068;-86
2023/04/26 11:29:08;;;;;;;13.85;2.95;;;13.90;72.80;;;;;;5038351;28;20029;-84
2023/04/26 11:31:33;;;;;;;27.63;3.40;;;13.80;69.60;;;;;;5035967;28;20025;-85
2023/04/26 11:34:05;;;;;;;21.48;3.17;;;13.70;64.40;;;;;;5036442;28;20022;-83
2023/04/26 11:36:31;;;;;;;19.67;3.30;;;13.60;64.40;;;;;;5034504;28;20025;-85
2023/04/26 11:38:57;;;;;;;17.23;2.85;;;13.70;66.00;;;;;;5034923;28;20029;-82
2023/04/26 11:41:23;;;;;;;13.55;2.70;;;13.70;66.00;;;;;;5031303;28;20025;-86
2023/04/26 11:43:48;;;;;;;11.18;2.47;;;13.70;66.50;;;;;;5051384;28;20397;-85
2023/04/26 11:46:15;;;;;;;8.45;2.33;;;13.70;67.20;;;;;;5034183;28;20025;-87
2023/04/26 11:48:41;;;;;;;7.90;2.30;;;13.80;68.30;;;;;;5033575;28;20539;-86
2023/04/26 11:51:07;;;;;;;10.32;2.72;;;13.90;68.90;;;;;;5053188;28;20025;-86
2023/04/26 11:53:37;;;;;;;12.52;2.47;;;13.90;69.80;;;;;;5032349;28;20068;-85
2023/04/26 11:56:11;;;;;;;12.07;2.28;;;13.90;71.10;;;;;;5032756;28;20026;-86
2023/04/26 11:58:37;;;;;;;11.27;2.50;;;13.90;71.00;;;;;;5052276;28;20079;-85
2023/04/26 12:01:02;;;;;;;11.10;2.30;;;14.00;70.90;;;;;;5032714;28;20018;-85
2023/04/26 12:03:30;;;;;;;10.20;2.47;;;14.00;70.50;;;;;;5031195;28;20083;-85
2023/04/26 12:05:55;;;;;;;7.05;2.30;;;14.10;70.60;;;;;;5033089;28;20455;-86
2023/04/26 12:08:25;;;;;;;9.63;2.53;;;14.10;70.80;;;;;;5031661;28;20064;-85
2023/04/26 12:10:51;;;;;;;7.15;2.00;;;14.10;70.80;;;;;;5032261;28;20057;-85
2023/04/26 12:13:18;;;;;;;11.82;2.15;;;14.20;71.00;;;;;;5034967;28;20028;-85
2023/04/26 12:15:50;;;;;;;8.50;2.35;;;14.30;71.20;;;;;;5049636;28;20087;-87
2023/04/26 12:18:15;;;;;;;6.43;1.92;;;14.30;71.00;;;;;;5030968;28;20037;-85
2023/04/26 12:20:42;;;;;;;9.10;2.65;;;14.40;71.20;;;;;;5030653;28;20550;-85
2023/04/26 12:23:11;;;;;;;8.48;2.20;;;14.40;71.40;;;;;;5032888;28;20064;-85
2023/04/26 12:25:39;;;;;;;6.45;2.08;;;14.40;71.70;;;;;;5032233;28;20029;-85
2023/04/26 12:28:13;;;;;;;7.93;1.95;;;14.40;71.80;;;;;;5037310;28;20078;-86
2023/04/26 12:30:39;;;;;;;8.77;1.90;;;14.40;71.90;;;;;;5035159;28;20033;-86
2023/04/26 12:33:05;;;;;;;7.05;2.20;;;14.40;72.80;;;;;;5037557;28;20659;-85
2023/04/26 12:35:32;;;;;;;6.35;1.77;;;14.30;72.90;;;;;;5055705;28;20041;-85
2023/04/26 12:38:00;;;;;;;6.90;2.05;;;14.30;72.60;;;;;;5055757;28;20035;-85
2023/04/26 12:40:26;;;;;;;6.63;2.10;;;14.30;72.80;;;;;;5055044;28;20021;-87
2023/04/26 12:42:54;;;;;;;7.28;1.85;;;14.30;72.90;;;;;;5055848;28;20028;-84
2023/04/26 12:45:21;;;;;;;11.68;2.28;;;14.30;72.60;;;;;;5055408;28;20096;-85
2023/04/26 12:47:47;;;;;;;9.65;2.35;;;14.30;73.10;;;;;;5033988;28;20031;-83
2023/04/26 12:50:13;;;;;;;12.02;2.55;;;14.30;72.40;;;;;;5036858;28;20025;-85
2023/04/26 12:52:44;;;;;;;10.73;2.08;;;14.30;72.10;;;;;;5033950;28;20116;-84
2023/04/26 12:55:11;;;;;;;10.27;2.28;;;14.40;72.00;;;;;;5037208;28;20470;-83
2023/04/26 12:57:37;;;;;;;10.73;2.10;;;14.40;72.30;;;;;;5055278;28;20043;-85
2023/04/26 13:00:05;;;;;;;10.75;2.22;;;14.40;72.40;;;;;;5055630;28;20025;-83
2023/04/26 13:02:31;;;;;;;8.45;2.92;;;14.30;72.40;;;;;;5034070;28;20056;-85
2023/04/26 13:04:57;;;;;;;5.70;1.90;;;14.30;72.70;;;;;;5034724;28;20036;-85
2023/04/26 13:07:22;;;;;;;7.28;1.80;;;14.30;72.70;;;;;;5033597;28;20025;-85
2023/04/26 13:09:48;;;;;;;10.50;2.17;;;14.30;72.50;;;;;;5034379;28;20089;-85
2023/04/26 13:12:14;;;;;;;8.88;2.03;;;14.30;72.60;;;;;;5054920;28;20033;-84